Time;durP1;ratioP1;P1;durP2;ratioP2;P2;SDS_P1;SDS_P2;PMS_P1;PMS_P2;Temp;Humidity;BMP_temperature;BMP_pressure;BME280_temperature;BME280_humidity;BME280_pressure;Samples;Min_cycle;Max_cycle;Signal;HPM_P1;HPM_P2
2023/10/28 00:00:58;;;;;;;0.30;0.30;;;;;;;9.26;92.49;94005.50;6132888;23;20147;-80
2023/10/28 00:03:24;;;;;;;2.23;0.40;;;;;;;9.28;92.65;94004.34;6131825;23;20139;-80
2023/10/28 00:05:50;;;;;;;0.40;0.40;;;;;;;9.34;91.58;94014.00;6128590;23;20203;-82
2023/10/28 00:08:15;;;;;;;0.30;0.30;;;;;;;9.33;92.32;94011.59;6110015;23;20183;-81
2023/10/28 00:10:41;;;;;;;0.60;0.50;;;;;;;9.23;92.33;94019.63;6133547;23;20466;-82
2023/10/28 00:13:07;;;;;;;0.80;0.43;;;;;;;9.16;91.75;94018.69;6106410;23;20155;-83
2023/10/28 00:15:33;;;;;;;0.50;0.40;;;;;;;9.41;90.47;94023.66;6133569;23;20504;-81
2023/10/28 00:17:58;;;;;;;0.40;0.40;;;;;;;9.44;90.71;94018.91;6107921;23;20187;-82
2023/10/28 00:20:23;;;;;;;0.30;0.30;;;;;;;9.41;91.23;94018.47;6131497;23;20156;-83
2023/10/28 00:22:53;;;;;;;0.50;0.30;;;;;;;9.42;90.87;94023.47;6104839;23;20163;-81
2023/10/28 00:25:22;;;;;;;0.20;0.20;;;;;;;9.41;90.60;94023.66;6105038;23;20719;-83
2023/10/28 00:27:48;;;;;;;1.20;0.40;;;;;;;9.47;89.69;94023.75;6105267;23;20214;-82
2023/10/28 00:30:13;;;;;;;0.77;0.30;;;;;;;9.56;90.01;94027.88;6128890;23;20179;-82
2023/10/28 00:32:39;;;;;;;0.33;0.33;;;;;;;9.58;89.42;94031.09;6104651;23;20174;-83
2023/10/28 00:35:08;;;;;;;0.40;0.40;;;;;;;9.44;90.82;94033.66;6103987;23;20163;-83
2023/10/28 00:37:37;;;;;;;2.20;0.50;;;;;;;9.48;90.72;94040.91;6105154;23;20155;-81
2023/10/28 00:40:06;;;;;;;0.27;0.27;;;;;;;9.34;91.62;94039.91;6129296;23;20222;-82
2023/10/28 00:42:35;;;;;;;0.40;0.40;;;;;;;9.32;92.41;94049.63;6155516;23;20159;-81
2023/10/28 00:45:05;;;;;;;0.60;0.40;;;;;;;9.43;92.31;94050.19;6103966;23;20159;-82
2023/10/28 00:47:33;;;;;;;0.30;0.30;;;;;;;9.28;93.36;94045.81;6103761;23;20150;-82
2023/10/28 00:49:59;;;;;;;0.70;0.40;;;;;;;9.23;94.04;94047.31;6104171;23;20279;-81
2023/10/28 00:52:24;;;;;;;0.80;0.40;;;;;;;9.19;94.68;94052.03;6104002;23;20201;-82
2023/10/28 00:54:51;;;;;;;0.40;0.30;;;;;;;9.30;94.10;94045.63;6103118;23;20257;-80
2023/10/28 00:57:17;;;;;;;0.77;0.50;;;;;;;9.36;93.49;94058.69;6104216;23;20213;-81
2023/10/28 00:59:43;;;;;;;0.40;0.40;;;;;;;9.29;93.65;94050.00;6104310;23;20207;-82
2023/10/28 01:02:09;;;;;;;0.90;0.40;;;;;;;9.20;93.78;94064.00;6128762;23;20166;-83
2023/10/28 01:04:35;;;;;;;0.87;0.40;;;;;;;9.27;93.55;94062.31;6128323;23;20221;-82
2023/10/28 01:07:00;;;;;;;0.77;0.50;;;;;;;9.29;93.01;94065.53;6104008;23;20604;-81
2023/10/28 01:09:26;;;;;;;0.47;0.43;;;;;;;9.32;93.14;94065.19;6104331;23;20258;-81
2023/10/28 01:11:54;;;;;;;1.13;0.40;;;;;;;9.23;93.17;94063.66;6128306;23;20250;-82
2023/10/28 01:14:20;;;;;;;0.50;0.50;;;;;;;9.15;93.22;94060.31;6128642;23;20154;-83
2023/10/28 01:16:45;;;;;;;0.53;0.43;;;;;;;9.34;92.29;94065.81;6104446;23;20627;-82
2023/10/28 01:19:10;;;;;;;0.43;0.37;;;;;;;9.29;92.30;94067.34;6104009;23;20175;-82
2023/10/28 01:21:36;;;;;;;0.80;0.40;;;;;;;9.31;91.59;94060.19;6128601;23;20162;-81
2023/10/28 01:24:01;;;;;;;1.93;0.60;;;;;;;9.15;91.67;94071.47;6103624;23;20163;-81
2023/10/28 01:26:27;;;;;;;0.47;0.40;;;;;;;9.35;92.02;94067.41;6103850;23;20163;-83
2023/10/28 01:28:53;;;;;;;0.60;0.60;;;;;;;9.22;92.18;94066.41;6128862;23;20183;-81
2023/10/28 01:31:19;;;;;;;1.67;0.77;;;;;;;9.26;91.49;94062.47;6129508;23;20189;-83
2023/10/28 01:33:44;;;;;;;1.13;0.70;;;;;;;9.29;91.20;94077.69;6104678;23;20262;-81
2023/10/28 01:36:09;;;;;;;0.73;0.60;;;;;;;9.12;92.35;94069.25;6128845;23;20524;-84
2023/10/28 01:38:36;;;;;;;0.97;0.60;;;;;;;9.26;91.95;94072.84;6104196;23;20183;-83
2023/10/28 01:41:01;;;;;;;2.57;0.83;;;;;;;9.36;90.99;94078.56;6104803;23;20186;-83
2023/10/28 01:43:27;;;;;;;3.40;0.90;;;;;;;9.39;90.50;94072.25;6155271;23;20152;-83
2023/10/28 01:45:52;;;;;;;2.80;0.80;;;;;;;9.31;91.02;94075.72;6104401;23;20596;-82
2023/10/28 01:48:18;;;;;;;1.27;0.70;;;;;;;9.28;90.87;94076.88;6128197;23;20182;-83
2023/10/28 01:50:43;;;;;;;2.63;0.83;;;;;;;9.41;90.74;94075.47;6128635;23;20167;-83
2023/10/28 01:53:08;;;;;;;4.73;1.07;;;;;;;9.17;90.60;94077.28;6128489;23;20243;-82
2023/10/28 01:55:34;;;;;;;2.53;0.60;;;;;;;9.26;91.11;94083.19;6128374;23;20155;-84
2023/10/28 01:58:00;;;;;;;2.87;1.13;;;;;;;9.23;89.61;94076.59;6103772;23;20175;-83
2023/10/28 02:00:30;;;;;;;4.27;1.03;;;;;;;9.29;89.04;94075.09;6103785;23;20159;-83
2023/10/28 02:02:56;;;;;;;2.07;0.80;;;;;;;9.33;88.27;94084.91;6105541;23;20206;-82
2023/10/28 02:05:21;;;;;;;4.33;1.00;;;;;;;9.31;87.83;94075.72;6107412;23;20236;-84
2023/10/28 02:07:47;;;;;;;2.47;1.00;;;;;;;9.20;88.43;94087.31;6104856;23;20661;-82
2023/10/28 02:10:12;;;;;;;1.50;1.03;;;;;;;9.14;87.81;94084.59;6104191;23;20194;-84
2023/10/28 02:12:37;;;;;;;3.47;1.00;;;;;;;9.19;88.13;94083.13;6104295;23;20508;-84
2023/10/28 02:15:07;;;;;;;3.20;1.20;;;;;;;8.96;87.21;94092.69;6127934;23;20163;-82
2023/10/28 02:17:32;;;;;;;3.73;1.10;;;;;;;9.15;85.35;94081.84;6129365;23;20533;-83
2023/10/28 02:19:57;;;;;;;5.90;1.80;;;;;;;9.11;85.59;94075.41;6109224;23;20155;-83
2023/10/28 02:22:23;;;;;;;5.10;1.17;;;;;;;9.12;85.33;94081.41;6111055;23;20167;-82
2023/10/28 02:24:48;;;;;;;4.60;1.20;;;;;;;9.27;84.57;94077.03;6132232;23;20506;-81
2023/10/28 02:27:14;;;;;;;5.10;2.10;;;;;;;9.07;85.11;94066.38;6111593;23;20155;-83
2023/10/28 02:29:39;;;;;;;6.83;2.10;;;;;;;9.04;84.94;94066.72;6131417;23;20182;-82
2023/10/28 02:32:08;;;;;;;5.13;1.40;;;;;;;9.24;84.66;94065.25;6106338;23;20588;-82
2023/10/28 02:34:34;;;;;;;2.00;0.87;;;;;;;9.13;84.84;94065.69;6131012;23;20159;-82
2023/10/28 02:37:00;;;;;;;3.43;1.23;;;;;;;8.97;85.99;94094.28;6106724;23;20552;-83
2023/10/28 02:39:26;;;;;;;5.00;1.60;;;;;;;8.92;86.59;94093.97;6109123;23;20175;-82
2023/10/28 02:41:54;;;;;;;4.90;1.30;;;;;;;9.13;86.18;94086.41;6135414;23;20489;-83
2023/10/28 02:44:20;;;;;;;9.17;1.50;;;;;;;9.15;85.82;94076.66;6106948;23;20162;-81
2023/10/28 02:46:45;;;;;;;3.40;1.83;;;;;;;9.31;85.09;94078.31;6131800;23;20204;-82
2023/10/28 02:49:11;;;;;;;8.50;1.40;;;;;;;9.38;85.07;94075.84;6106971;23;20183;-82
2023/10/28 02:51:37;;;;;;;4.37;1.60;;;;;;;9.31;85.70;94086.88;6132142;23;20239;-82
2023/10/28 02:54:02;;;;;;;6.47;1.73;;;;;;;9.29;86.53;94088.06;6130938;23;20162;-81
2023/10/28 02:56:28;;;;;;;3.90;1.47;;;;;;;9.29;85.91;94091.44;6105465;23;20550;-82
2023/10/28 02:58:54;;;;;;;3.23;0.90;;;;;;;9.41;85.88;94091.81;6131626;23;20261;-81
2023/10/28 03:01:19;;;;;;;4.43;1.13;;;;;;;9.32;86.30;94091.09;6106993;23;20501;-82
2023/10/28 03:03:45;;;;;;;6.60;1.93;;;;;;;9.30;87.17;94087.88;6131367;23;20190;-82
2023/10/28 03:06:11;;;;;;;5.30;1.10;;;;;;;9.33;87.14;94090.09;6131038;23;20611;-82
2023/10/28 03:08:37;;;;;;;3.50;1.43;;;;;;;9.31;87.45;94091.28;6108004;23;20290;-82
2023/10/28 03:11:02;;;;;;;3.93;1.40;;;;;;;9.38;87.37;94092.19;6108810;23;20171;-83
2023/10/28 03:13:28;;;;;;;3.73;1.30;;;;;;;9.45;87.16;94092.25;6109142;23;20505;-82
2023/10/28 03:15:53;;;;;;;2.40;1.37;;;;;;;9.47;87.57;94098.09;6133846;23;20186;-82
2023/10/28 03:18:19;;;;;;;6.10;1.60;;;;;;;9.23;89.09;94099.09;6109075;23;20179;-84
2023/10/28 03:20:44;;;;;;;6.73;1.43;;;;;;;9.31;89.30;94097.25;6133842;23;20159;-84
2023/10/28 03:23:09;;;;;;;4.03;1.50;;;;;;;9.21;89.55;94099.28;6108938;23;20175;-84
2023/10/28 03:25:35;;;;;;;4.87;1.53;;;;;;;9.29;89.37;94103.59;6108283;23;20166;-84
2023/10/28 03:28:00;;;;;;;4.77;1.63;;;;;;;9.32;89.13;94111.81;6106871;23;20661;-83
2023/10/28 03:30:26;;;;;;;4.20;1.30;;;;;;;9.16;90.52;94114.53;6131356;23;20187;-84
2023/10/28 03:32:52;;;;;;;3.73;1.43;;;;;;;9.31;90.23;94106.81;6131948;23;20159;-84
2023/10/28 03:35:17;;;;;;;5.40;1.70;;;;;;;9.15;91.01;94105.16;6106625;23;20213;-85
2023/10/28 03:37:44;;;;;;;4.27;1.23;;;;;;;9.11;91.90;94101.31;6107886;23;20163;-85
2023/10/28 03:40:10;;;;;;;5.23;1.53;;;;;;;9.31;90.22;94099.03;6133724;23;20183;-84
2023/10/28 03:42:36;;;;;;;2.83;1.50;;;;;;;9.24;90.62;94098.13;6106531;23;20155;-84
2023/10/28 03:45:02;;;;;;;3.60;1.30;;;;;;;9.42;90.11;94098.59;6104689;23;20162;-84
2023/10/28 03:47:29;;;;;;;1.53;1.17;;;;;;;9.34;90.71;94107.25;6129122;23;20469;-82
2023/10/28 03:49:54;;;;;;;3.60;1.40;;;;;;;9.32;90.99;94101.44;6105315;23;20175;-82
2023/10/28 03:52:20;;;;;;;6.27;1.30;;;;;;;9.36;90.68;94109.66;6105543;23;20175;-83
2023/10/28 03:54:45;;;;;;;3.47;1.03;;;;;;;9.33;91.27;94103.06;6128807;23;20155;-83
2023/10/28 03:57:10;;;;;;;3.97;1.20;;;;;;;9.32;91.51;94101.44;6104207;23;20162;-83
2023/10/28 03:59:35;;;;;;;3.33;1.40;;;;;;;9.33;91.59;94102.25;6128750;23;20182;-84
2023/10/28 04:02:03;;;;;;;4.70;1.40;;;;;;;9.36;91.66;94107.06;6104203;23;20155;-83
2023/10/28 04:04:28;;;;;;;6.83;1.57;;;;;;;9.35;91.74;94102.88;6104041;23;20604;-83
2023/10/28 04:06:55;;;;;;;2.73;1.47;;;;;;;9.40;91.65;94103.16;6104272;23;20162;-82
2023/10/28 04:09:20;;;;;;;3.83;1.47;;;;;;;9.38;91.49;94105.13;6104313;23;20191;-84
2023/10/28 04:11:46;;;;;;;3.93;1.53;;;;;;;9.35;92.15;94103.69;6105250;23;20625;-83
2023/10/28 04:14:11;;;;;;;5.43;1.40;;;;;;;9.34;91.72;94107.25;6104539;23;20509;-81
2023/10/28 04:16:36;;;;;;;5.20;1.47;;;;;;;9.39;91.93;94093.78;6129525;23;20148;-82
2023/10/28 04:19:02;;;;;;;3.43;1.77;;;;;;;9.41;92.12;94098.78;6104639;23;20175;-83
2023/10/28 04:21:29;;;;;;;3.17;1.00;;;;;;;9.32;91.93;94096.28;6128842;23;20210;-81
2023/10/28 04:23:54;;;;;;;8.17;1.50;;;;;;;9.29;92.57;94094.03;6104808;23;20167;-81
2023/10/28 04:26:19;;;;;;;5.33;1.23;;;;;;;9.27;92.55;94093.38;6128422;23;20165;-80
2023/10/28 04:28:45;;;;;;;3.60;1.30;;;;;;;9.27;91.95;94090.78;6104505;23;20175;-82
2023/10/28 04:31:10;;;;;;;6.07;1.80;;;;;;;9.20;92.64;94089.09;6129261;23;20202;-83
2023/10/28 04:33:35;;;;;;;3.37;1.40;;;;;;;9.17;93.48;94089.44;6104553;23;20166;-83
2023/10/28 04:36:01;;;;;;;3.87;1.20;;;;;;;9.12;93.73;94092.56;6155113;23;20489;-82
2023/10/28 04:38:26;;;;;;;5.00;1.20;;;;;;;9.09;93.72;94085.13;6104176;23;20655;-84
2023/10/28 04:40:52;;;;;;;4.23;1.23;;;;;;;9.16;93.25;94091.22;6104798;23;20167;-82
2023/10/28 04:43:19;;;;;;;3.07;1.17;;;;;;;9.13;93.08;94094.16;6128926;23;20162;-82
2023/10/28 04:45:44;;;;;;;6.00;1.20;;;;;;;8.89;93.27;94092.56;6105483;23;20170;-82
2023/10/28 04:48:11;;;;;;;2.63;1.23;;;;;;;8.96;93.50;94092.69;6105048;23;20179;-83
2023/10/28 04:50:36;;;;;;;6.97;1.70;;;;;;;8.73;94.17;94088.28;6129647;23;20662;-82
2023/10/28 04:53:02;;;;;;;3.83;1.13;;;;;;;8.73;94.00;94090.88;6105235;23;20156;-82
2023/10/28 04:55:27;;;;;;;3.00;1.20;;;;;;;8.74;94.41;94087.31;6103481;23;20159;-84
2023/10/28 04:57:52;;;;;;;2.80;0.83;;;;;;;8.63;93.91;94092.06;6104462;23;20194;-82
2023/10/28 05:00:18;;;;;;;2.37;1.10;;;;;;;8.63;93.67;94089.50;6104613;23;20155;-83
2023/10/28 05:02:44;;;;;;;4.00;1.40;;;;;;;8.62;93.66;94083.50;6128509;23;20183;-82
2023/10/28 05:05:09;;;;;;;4.27;1.27;;;;;;;8.59;93.66;94083.88;6103500;23;20363;-83
2023/10/28 05:07:35;;;;;;;3.07;1.13;;;;;;;8.56;93.76;94085.97;6104320;23;20501;-82
2023/10/28 05:10:01;;;;;;;2.07;0.93;;;;;;;8.54;93.39;94082.75;6104277;23;20176;-83
2023/10/28 05:12:26;;;;;;;2.37;1.00;;;;;;;8.59;92.89;94086.44;6128267;23;20626;-84
2023/10/28 05:14:51;;;;;;;3.50;1.10;;;;;;;8.58;93.14;94084.84;6103120;23;20641;-82
2023/10/28 05:17:17;;;;;;;2.17;1.10;;;;;;;8.41;92.92;94101.44;6128282;23;20152;-83
2023/10/28 05:19:42;;;;;;;3.90;0.97;;;;;;;8.50;92.84;94098.63;6129515;23;20175;-82
2023/10/28 05:22:08;;;;;;;3.47;1.10;;;;;;;8.46;92.82;94093.94;6129340;23;20234;-83
2023/10/28 05:24:33;;;;;;;3.27;0.90;;;;;;;8.52;92.72;94080.34;6103784;23;20210;-83
2023/10/28 05:26:58;;;;;;;1.87;1.00;;;;;;;8.55;92.48;94085.16;6105279;23;20250;-83
2023/10/28 05:29:24;;;;;;;7.10;1.40;;;;;;;8.61;91.69;94081.09;6104587;23;20179;-84
2023/10/28 05:31:49;;;;;;;2.57;1.00;;;;;;;8.44;92.67;94077.78;6128530;23;20308;-83
2023/10/28 05:34:14;;;;;;;8.07;1.40;;;;;;;8.68;91.72;94079.44;6103874;23;20159;-83
2023/10/28 05:36:40;;;;;;;4.93;1.50;;;;;;;8.74;90.87;94078.72;6104624;23;20233;-82
2023/10/28 05:39:07;;;;;;;3.10;1.10;;;;;;;8.75;90.61;94081.19;6103837;23;20175;-84
2023/10/28 05:41:32;;;;;;;1.70;1.00;;;;;;;8.86;90.04;94081.75;6104424;23;20220;-84
2023/10/28 05:43:57;;;;;;;1.87;1.03;;;;;;;8.64;90.63;94096.28;6128444;23;20669;-82
2023/10/28 05:46:23;;;;;;;3.07;0.93;;;;;;;8.65;90.31;94095.28;6104407;23;20155;-82
2023/10/28 05:48:50;;;;;;;7.30;1.27;;;;;;;8.69;90.60;94096.56;6105166;23;20237;-84
2023/10/28 05:51:16;;;;;;;1.90;0.90;;;;;;;8.77;89.98;94104.28;6131892;23;20191;-83
2023/10/28 05:53:41;;;;;;;1.73;1.10;;;;;;;8.73;89.63;94110.78;6106286;23;20166;-83
2023/10/28 05:56:06;;;;;;;1.73;0.90;;;;;;;8.56;90.46;94107.47;6104843;23;20167;-82
2023/10/28 05:58:32;;;;;;;2.40;1.00;;;;;;;8.75;90.17;94109.66;6105523;23;20202;-82
2023/10/28 06:00:59;;;;;;;5.33;1.17;;;;;;;8.66;90.62;94115.84;6105002;23;20167;-83
2023/10/28 06:03:26;;;;;;;5.70;1.10;;;;;;;8.69;89.90;94119.88;6128475;23;20159;-81
2023/10/28 06:05:51;;;;;;;3.53;1.20;;;;;;;8.83;89.65;94119.13;6103808;23;20547;-82
2023/10/28 06:08:17;;;;;;;1.67;1.10;;;;;;;8.87;89.13;94128.16;6128320;23;20186;-82
2023/10/28 06:10:45;;;;;;;2.20;1.00;;;;;;;8.79;89.81;94129.03;6105880;23;20175;-84
2023/10/28 06:13:11;;;;;;;2.97;1.00;;;;;;;8.87;89.82;94137.72;6131004;23;20163;-85
2023/10/28 06:15:37;;;;;;;3.60;1.07;;;;;;;8.95;89.06;94143.66;6131001;23;20178;-85
2023/10/28 06:18:02;;;;;;;3.30;1.20;;;;;;;8.90;89.61;94145.94;6105115;23;20178;-84
2023/10/28 06:20:28;;;;;;;1.97;1.70;;;;;;;8.80;89.85;94142.75;6130195;23;20156;-84
2023/10/28 06:22:53;;;;;;;2.83;1.10;;;;;;;8.96;89.82;94157.41;6104310;23;20163;-83
2023/10/28 06:25:18;;;;;;;2.67;0.90;;;;;;;9.00;89.83;94162.06;6103973;23;20174;-84
2023/10/28 06:27:44;;;;;;;4.87;1.13;;;;;;;8.89;90.21;94161.66;6104616;23;20155;-84
2023/10/28 06:30:11;;;;;;;4.97;1.13;;;;;;;9.01;89.68;94160.25;6104317;23;20638;-80
2023/10/28 06:32:38;;;;;;;3.70;1.00;;;;;;;9.14;88.85;94172.66;6130667;23;20155;-84
2023/10/28 06:35:04;;;;;;;1.40;0.90;;;;;;;9.20;88.65;94169.41;6105049;23;20163;-83
2023/10/28 06:37:30;;;;;;;3.50;0.80;;;;;;;9.07;89.33;94157.00;6109738;23;20159;-84
2023/10/28 06:39:55;;;;;;;4.87;1.33;;;;;;;9.26;88.42;94151.34;6136222;23;20213;-82
2023/10/28 06:42:20;;;;;;;4.20;1.30;;;;;;;9.15;88.79;94164.72;6111338;23;20159;-82
2023/10/28 06:44:46;;;;;;;3.53;1.30;;;;;;;9.26;88.67;94160.91;6105207;23;20178;-81
2023/10/28 06:47:11;;;;;;;2.93;1.47;;;;;;;9.42;87.78;94165.16;6129291;23;20156;-81
2023/10/28 06:49:37;;;;;;;3.27;1.20;;;;;;;9.26;88.62;94164.31;6105288;23;20264;-84
2023/10/28 06:52:03;;;;;;;3.13;1.37;;;;;;;9.19;88.24;94178.94;6105380;23;20171;-84
2023/10/28 06:54:28;;;;;;;2.90;1.40;;;;;;;9.52;87.39;94187.28;6104916;23;20162;-84
2023/10/28 06:56:53;;;;;;;4.80;1.20;;;;;;;9.33;88.11;94187.75;6104825;23;20199;-82
2023/10/28 06:59:19;;;;;;;2.73;1.20;;;;;;;9.47;87.90;94178.41;6129314;23;20274;-83
2023/10/28 07:01:44;;;;;;;3.43;1.00;;;;;;;9.41;87.88;94179.91;6106298;23;20218;-81
2023/10/28 07:04:11;;;;;;;2.57;1.63;;;;;;;9.39;88.03;94183.66;6106858;23;20656;-84
2023/10/28 07:06:36;;;;;;;2.03;1.23;;;;;;;9.52;87.28;94194.25;6117284;23;20263;-84
2023/10/28 07:09:01;;;;;;;3.13;1.20;;;;;;;9.55;87.37;94186.13;6120537;23;20178;-84
2023/10/28 07:11:27;;;;;;;3.80;1.20;;;;;;;9.67;87.28;94171.78;6148620;23;20223;-84
2023/10/28 07:13:52;;;;;;;8.30;1.20;;;;;;;9.85;86.17;94189.59;6119014;23;20163;-83
2023/10/28 07:16:20;;;;;;;4.47;0.90;;;;;;;9.97;84.99;94190.78;6103656;23;20215;-85
2023/10/28 07:18:46;;;;;;;3.87;1.47;;;;;;;10.02;85.19;94200.63;6105014;23;20179;-83
2023/10/28 07:34:35;;;;;;;3.47;1.20;;;;;;;9.74;85.56;94232.31;5999001;23;20211;-83
2023/10/28 07:37:01;;;;;;;4.50;1.27;;;;;;;9.91;85.28;94227.78;6008312;23;20159;-80
2023/10/28 07:39:26;;;;;;;5.07;1.47;;;;;;;10.13;84.76;94223.53;5984802;23;20192;-80
2023/10/28 07:41:53;;;;;;;3.27;1.43;;;;;;;10.24;83.94;94227.50;6008161;23;20159;-80
2023/10/28 07:44:18;;;;;;;3.43;1.10;;;;;;;10.47;83.21;94225.66;6007979;23;20190;-79
2023/10/28 07:46:43;;;;;;;4.87;1.20;;;;;;;10.64;83.02;94221.09;6008699;23;20213;-83
2023/10/28 07:49:10;;;;;;;2.97;1.27;;;;;;;10.54;82.74;94225.75;6026163;23;20592;-82
2023/10/28 07:51:36;;;;;;;4.33;0.90;;;;;;;10.71;82.55;94224.56;6018293;23;20186;-81
2023/10/28 07:54:02;;;;;;;3.40;1.13;;;;;;;10.67;82.78;94231.91;6041641;23;20228;-82
2023/10/28 07:56:29;;;;;;;5.33;1.10;;;;;;;10.84;82.06;94236.91;6020428;23;20164;-84
2023/10/28 07:58:58;;;;;;;3.23;1.20;;;;;;;10.91;81.43;94230.00;6021060;23;20647;-82
2023/10/28 08:01:23;;;;;;;3.33;1.30;;;;;;;10.98;80.99;94231.72;6027781;23;20193;-84
2023/10/28 08:03:51;;;;;;;1.83;1.13;;;;;;;11.02;80.04;94240.72;6011381;23;20527;-82
2023/10/28 08:06:17;;;;;;;3.17;1.00;;;;;;;11.02;80.26;94240.72;6010408;23;20194;-82
2023/10/28 08:08:43;;;;;;;2.60;1.00;;;;;;;11.22;80.37;94242.75;6138897;23;20218;-83
2023/10/28 08:11:08;;;;;;;2.00;1.13;;;;;;;11.24;80.05;94246.78;6131515;23;20246;-84
2023/10/28 08:13:35;;;;;;;3.60;1.20;;;;;;;11.40;80.15;94245.78;6106274;23;20222;-83
2023/10/28 08:16:01;;;;;;;7.70;3.67;;;;;;;11.34;79.71;94246.50;6105225;23;20155;-83
2023/10/28 08:18:30;;;;;;;4.57;2.00;;;;;;;11.47;79.01;94243.22;6106347;23;20187;-83
2023/10/28 08:20:55;;;;;;;4.30;2.53;;;;;;;11.75;78.55;94238.91;6106383;23;20233;-82
2023/10/28 08:23:20;;;;;;;12.13;5.83;;;;;;;11.89;78.07;94253.66;6105960;23;20631;-84
2023/10/28 08:25:46;;;;;;;15.20;7.43;;;;;;;11.64;78.54;94257.59;6154855;23;20163;-82
2023/10/28 08:28:12;;;;;;;9.30;4.27;;;;;;;12.02;77.20;94255.59;6153744;23;20175;-83
2023/10/28 08:30:37;;;;;;;10.70;4.53;;;;;;;12.22;76.28;94253.13;6128957;23;20233;-82
2023/10/28 08:33:02;;;;;;;9.73;4.33;;;;;;;12.14;76.59;94263.69;6127950;23;20526;-84
2023/10/28 08:35:28;;;;;;;6.03;1.47;;;;;;;12.34;76.29;94261.22;6128248;23;20167;-83
2023/10/28 08:37:54;;;;;;;2.37;1.10;;;;;;;12.39;76.50;94264.06;6128920;23;20578;-84
2023/10/28 08:40:19;;;;;;;3.87;1.23;;;;;;;12.31;76.85;94264.22;6104535;23;20697;-83
2023/10/28 08:42:45;;;;;;;3.03;1.17;;;;;;;11.83;77.76;94256.19;6105638;23;20163;-81
2023/10/28 08:45:10;;;;;;;3.70;1.10;;;;;;;12.27;76.98;94255.97;6104124;23;20155;-81
2023/10/28 08:47:40;;;;;;;4.23;1.43;;;;;;;12.42;76.21;94261.88;6128938;23;20182;-81
2023/10/28 08:50:09;;;;;;;4.50;1.23;;;;;;;12.04;76.48;94260.59;6128527;23;20198;-81
2023/10/28 08:52:38;;;;;;;5.93;1.60;;;;;;;12.17;76.18;94268.50;6103701;23;20206;-83
2023/10/28 08:55:04;;;;;;;3.80;1.20;;;;;;;12.22;76.54;94262.75;6136672;23;20162;-85
2023/10/28 08:57:29;;;;;;;4.30;1.33;;;;;;;12.33;76.25;94262.22;6137445;23;20171;-79
2023/10/28 08:59:55;;;;;;;3.97;1.10;;;;;;;12.39;76.75;94266.69;6135126;23;20178;-84
2023/10/28 09:02:21;;;;;;;3.00;1.27;;;;;;;12.50;75.61;94267.94;6109622;23;20218;-85
2023/10/28 09:04:46;;;;;;;5.67;1.23;;;;;;;12.73;74.99;94274.50;6108485;23;20200;-82
2023/10/28 09:07:11;;;;;;;3.83;1.80;;;;;;;12.81;74.49;94275.34;6129510;23;20224;-81
2023/10/28 09:09:39;;;;;;;3.00;1.17;;;;;;;12.85;74.62;94276.56;6129024;23;20186;-84
2023/10/28 09:12:07;;;;;;;5.30;1.20;;;;;;;12.70;74.67;94280.09;6105304;23;20227;-84
2023/10/28 09:14:32;;;;;;;3.60;1.17;;;;;;;12.62;74.66;94275.03;6104321;23;20634;-81
2023/10/28 09:17:02;;;;;;;1.97;1.20;;;;;;;12.24;74.86;94284.97;6104687;23;20163;-81
2023/10/28 09:19:28;;;;;;;3.03;1.10;;;;;;;12.26;74.29;94284.78;6104712;23;20176;-81
2023/10/28 09:21:55;;;;;;;2.63;1.30;;;;;;;12.02;73.24;94279.00;6129207;23;20490;-82
2023/10/28 09:24:21;;;;;;;6.60;1.57;;;;;;;11.90;73.46;94288.28;6104247;23;20159;-82
2023/10/28 09:26:50;;;;;;;5.50;1.33;;;;;;;11.99;73.75;94286.34;6104461;23;20338;-81
2023/10/28 09:29:33;;;;;;;2.43;1.00;;;;;;;12.21;72.75;94281.97;6104748;23;20201;-83
2023/10/28 09:32:05;;;;;;;2.97;1.10;;;;;;;12.53;71.61;94278.78;6130396;23;20198;-82
2023/10/28 09:34:31;;;;;;;3.13;1.20;;;;;;;12.35;72.03;94278.44;6128637;23;20247;-82
2023/10/28 09:36:57;;;;;;;5.13;1.47;;;;;;;12.73;71.40;94273.72;6104937;23;20159;-81
2023/10/28 09:39:23;;;;;;;7.90;1.43;;;;;;;12.75;71.63;94287.34;6154659;23;20171;-82
2023/10/28 09:41:51;;;;;;;3.53;1.10;;;;;;;12.83;71.38;94289.00;6103353;23;20194;-83
2023/10/28 09:44:16;;;;;;;4.20;1.30;;;;;;;12.86;71.28;94286.78;6127715;23;20159;-81
2023/10/28 09:46:45;;;;;;;3.30;1.10;;;;;;;13.07;70.62;94290.31;6103806;23;20603;-83
2023/10/28 09:49:12;;;;;;;4.40;1.00;;;;;;;13.31;70.05;94290.66;6103499;23;20241;-82
2023/10/28 09:51:37;;;;;;;2.70;1.20;;;;;;;13.47;69.64;94302.53;6128190;23;20166;-82
2023/10/28 09:54:08;;;;;;;5.90;1.77;;;;;;;13.41;69.76;94295.50;6103946;23;20238;-81
2023/10/28 09:56:37;;;;;;;3.73;1.20;;;;;;;13.18;68.07;94298.41;6104098;23;20144;-81
2023/10/28 09:59:12;;;;;;;4.50;1.70;;;;;;;13.41;68.07;94295.50;6103849;23;20202;-83
2023/10/28 10:01:48;;;;;;;4.07;1.20;;;;;;;13.41;68.11;94297.31;6104069;23;20154;-83
2023/10/28 10:04:31;;;;;;;4.63;2.20;;;;;;;13.76;66.88;94287.56;6102968;23;20538;-82
2023/10/28 10:06:56;;;;;;;3.97;1.50;;;;;;;13.32;67.34;94284.44;6103088;23;20183;-81
2023/10/28 10:09:22;;;;;;;5.03;1.30;;;;;;;13.71;65.18;94292.59;6126592;23;20179;-83
2023/10/28 10:11:49;;;;;;;4.60;1.50;;;;;;;13.80;65.41;94294.81;6103048;23;20243;-82
2023/10/28 10:14:15;;;;;;;4.53;1.50;;;;;;;14.14;64.51;94290.47;6128805;23;20170;-82
2023/10/28 10:16:46;;;;;;;6.10;1.70;;;;;;;14.19;63.90;94293.25;6103937;23;20201;-84
2023/10/28 10:19:17;;;;;;;5.43;1.17;;;;;;;13.79;63.82;94290.59;6104096;23;20203;-82
2023/10/28 10:21:54;;;;;;;4.03;1.43;;;;;;;14.41;62.38;94292.06;6126856;23;20136;-82
2023/10/28 10:24:20;;;;;;;6.93;1.90;;;;;;;13.62;62.44;94288.56;6103733;23;20159;-83
2023/10/28 10:26:56;;;;;;;5.07;1.40;;;;;;;13.90;62.52;94297.06;6103810;23;20163;-83
2023/10/28 10:29:22;;;;;;;4.13;1.77;;;;;;;13.95;62.46;94304.25;6127609;23;20202;-83
2023/10/28 10:31:51;;;;;;;3.97;1.57;;;;;;;13.62;63.09;94297.19;6102810;23;20163;-82
2023/10/28 10:34:45;;;;;;;3.43;1.20;;;;;;;13.94;62.60;94297.44;6127559;23;20234;-83
2023/10/28 10:37:22;;;;;;;5.33;1.60;;;;;;;14.18;61.56;94300.28;6105163;23;20528;-82
2023/10/28 10:39:47;;;;;;;6.93;1.40;;;;;;;13.91;61.18;94301.25;6102433;23;20200;-83
2023/10/28 10:42:13;;;;;;;4.80;1.47;;;;;;;13.87;61.92;94303.47;6102249;23;20167;-83
2023/10/28 10:44:39;;;;;;;8.33;2.03;;;;;;;14.04;61.65;94306.50;6126071;23;20194;-83
2023/10/28 10:47:08;;;;;;;5.77;2.10;;;;;;;13.89;60.72;94305.88;6127595;23;20170;-83
2023/10/28 10:49:35;;;;;;;7.07;2.17;;;;;;;13.89;61.21;94296.25;6127047;23;20270;-83
2023/10/28 10:52:02;;;;;;;8.93;2.73;;;;;;;14.12;61.72;94306.28;6126785;23;20209;-83
2023/10/28 10:54:31;;;;;;;5.87;2.13;;;;;;;13.71;63.43;94314.28;6103327;23;20159;-81
2023/10/28 10:57:00;;;;;;;6.37;1.60;;;;;;;13.45;61.89;94308.97;6121594;23;20160;-81
2023/10/28 10:59:55;;;;;;;7.17;1.80;;;;;;;13.62;62.14;94310.22;6125899;23;20631;-82
2023/10/28 11:02:47;;;;;;;4.73;1.50;;;;;;;13.46;62.49;94318.41;6015710;23;20236;-82
2023/10/28 11:05:22;;;;;;;6.60;1.70;;;;;;;13.57;62.62;94317.81;6039812;23;20161;-81
2023/10/28 11:07:58;;;;;;;6.40;1.90;;;;;;;13.80;62.18;94307.88;6041286;23;20145;-82
2023/10/28 11:11:13;;;;;;;;;;;;;;;;;;;;;
2023/10/28 11:14:12;;;;;;;;;;;;;;;;;;;;;
2023/10/28 11:17:00;;;;;;;9.97;2.23;;;;;;;13.28;61.67;94308.50;5974178;24;20248;-82
2023/10/28 11:20:01;;;;;;;6.17;2.40;;;;;;;13.35;61.65;94293.69;5974548;24;20183;-81
2023/10/28 11:22:56;;;;;;;8.83;2.30;;;;;;;13.41;61.79;94300.72;5950048;24;20246;-82
2023/10/28 11:25:48;;;;;;;;;;;;;;;;;;;;;
2023/10/28 11:28:47;;;;;;;7.53;1.93;;;;;;;13.30;63.84;94296.88;5974408;24;20209;-82
2023/10/28 11:31:46;;;;;;;10.87;2.10;;;;;;;13.21;63.42;94303.25;5972368;24;20177;-82
2023/10/28 11:42:10;;;;;;;;;;;;;;;;;;;;;
2023/10/28 11:51:13;;;;;;;6.50;1.90;;;;;;;12.84;63.57;94301.81;6023917;23;20209;-80
2023/10/28 11:53:44;;;;;;;25.27;11.63;;;;;;;12.93;63.66;94295.47;6025328;23;20177;-82
2023/10/28 11:56:09;;;;;;;16.83;6.67;;;;;;;13.08;63.60;94295.34;6030773;23;20154;-83
2023/10/28 11:58:34;;;;;;;5.20;2.23;;;;;;;12.79;64.98;94298.97;6011433;23;20559;-82
2023/10/28 12:01:01;;;;;;;7.17;2.40;;;;;;;12.79;66.96;94300.78;6035613;23;20177;-84
2023/10/28 12:03:34;;;;;;;6.77;2.37;;;;;;;12.60;68.24;94300.47;6035656;23;20291;-83
2023/10/28 12:06:12;;;;;;;;;;;;;;;;;;;;;
2023/10/28 12:08:37;;;;;;;7.93;1.93;;;;;;;12.37;70.59;94298.09;6013519;23;20337;-83
2023/10/28 12:11:15;;;;;;;6.30;1.67;;;;;;;12.27;71.30;94294.19;6015731;23;20253;-83
2023/10/28 12:13:59;;;;;;;7.97;2.83;;;;;;;12.29;73.65;94307.84;6085068;23;20195;-83